createdAt,value
2023-05-03T00:02:10.466Z,4.20
2023-05-03T00:04:37.892Z,3.77
2023-05-03T00:07:06.766Z,3.57
2023-05-03T00:09:34.442Z,3.80
2023-05-03T00:12:02.544Z,3.87
2023-05-03T00:14:30.218Z,3.80
2023-05-03T00:16:57.584Z,4.50
2023-05-03T00:19:31.444Z,3.87
2023-05-03T00:21:59.378Z,4.63
2023-05-03T00:24:28.051Z,4.67
2023-05-03T00:26:55.395Z,3.80
2023-05-03T00:29:23.164Z,4.37
2023-05-03T00:31:52.077Z,4.97
2023-05-03T00:34:19.491Z,4.53
2023-05-03T00:36:46.844Z,4.37
2023-05-03T00:39:14.315Z,5.73
2023-05-03T00:41:43.106Z,4.43
2023-05-03T00:44:10.458Z,4.70
2023-05-03T00:46:37.851Z,4.53
2023-05-03T00:49:05.294Z,4.63
2023-05-03T00:51:33.114Z,4.93
2023-05-03T00:54:00.729Z,5.10
2023-05-03T00:56:31.119Z,5.03
2023-05-03T00:59:02.479Z,4.87
2023-05-03T01:01:30.503Z,4.93
2023-05-03T01:03:58.094Z,4.60
2023-05-03T01:06:32.964Z,4.43
2023-05-03T01:09:03.172Z,4.20
2023-05-03T01:11:34.929Z,4.60
2023-05-03T01:14:11.200Z,4.43
2023-05-03T01:16:41.494Z,4.20
2023-05-03T01:19:14.668Z,3.93
2023-05-03T01:21:43.716Z,5.37
2023-05-03T01:24:12.615Z,3.93
2023-05-03T01:26:41.303Z,4.30
2023-05-03T01:29:08.763Z,3.93
2023-05-03T01:31:40.147Z,3.67
2023-05-03T01:34:22.057Z,3.87
2023-05-03T01:36:50.710Z,3.70
2023-05-03T01:39:20.439Z,3.70
2023-05-03T01:41:49.394Z,3.50
2023-05-03T01:44:17.204Z,3.80
2023-05-03T01:46:45.031Z,3.47
2023-05-03T01:49:12.623Z,3.80
2023-05-03T01:51:40.443Z,3.80
2023-05-03T01:54:08.228Z,3.70
2023-05-03T01:56:37.201Z,4.00
2023-05-03T01:59:06.172Z,4.33
2023-05-03T02:01:34.695Z,3.53
2023-05-03T02:04:02.210Z,3.67
2023-05-03T02:06:30.614Z,3.77
2023-05-03T02:09:00.228Z,3.87
2023-05-03T02:11:27.646Z,3.37
2023-05-03T02:13:55.103Z,3.23
2023-05-03T02:16:24.178Z,3.30
2023-05-03T02:18:53.728Z,3.27
2023-05-03T02:21:21.096Z,3.20
2023-05-03T02:23:48.413Z,3.47
2023-05-03T02:26:15.786Z,3.27
2023-05-03T02:28:43.132Z,3.33
2023-05-03T02:31:10.697Z,3.33
2023-05-03T02:33:41.915Z,3.60
2023-05-03T02:36:09.724Z,3.80
2023-05-03T02:38:37.084Z,3.43
2023-05-03T02:41:04.713Z,3.10
2023-05-03T02:43:32.105Z,2.97
2023-05-03T02:45:59.619Z,3.40
2023-05-03T02:48:27.246Z,3.47
2023-05-03T02:50:56.003Z,3.03
2023-05-03T02:53:23.390Z,3.47
2023-05-03T02:55:52.431Z,3.30
2023-05-03T02:58:19.775Z,3.30
2023-05-03T03:00:47.148Z,3.00
2023-05-03T03:03:16.276Z,3.30
2023-05-03T03:05:43.737Z,3.83
2023-05-03T03:08:12.466Z,3.30
2023-05-03T03:10:39.940Z,3.20
2023-05-03T03:13:07.735Z,3.60
2023-05-03T03:15:39.116Z,3.37
2023-05-03T03:18:06.767Z,3.33
2023-05-03T03:20:34.200Z,3.40
2023-05-03T03:23:01.605Z,3.20
2023-05-03T03:25:30.300Z,3.10
2023-05-03T03:27:58.810Z,3.40
2023-05-03T03:30:26.725Z,3.23
2023-05-03T03:33:03.361Z,3.10
2023-05-03T03:35:37.864Z,2.97
2023-05-03T03:38:06.233Z,2.93
2023-05-03T03:40:38.441Z,2.90
2023-05-03T03:43:06.504Z,2.83
2023-05-03T03:45:33.899Z,3.07
2023-05-03T03:48:01.484Z,3.10
2023-05-03T03:50:28.968Z,2.77
2023-05-03T03:52:57.222Z,3.10
2023-05-03T03:55:24.877Z,2.90
2023-05-03T03:57:56.708Z,2.60
2023-05-03T04:00:25.768Z,2.53
2023-05-03T04:03:04.660Z,2.90
2023-05-03T04:05:34.051Z,2.37
2023-05-03T04:08:02.215Z,2.30
2023-05-03T04:10:32.013Z,2.47
2023-05-03T04:13:01.549Z,2.73
2023-05-03T04:15:29.243Z,2.30
2023-05-03T04:17:59.570Z,2.40
2023-05-03T04:20:27.093Z,2.90
2023-05-03T04:22:55.079Z,2.27
2023-05-03T04:25:26.796Z,2.70
2023-05-03T04:28:03.086Z,2.40
2023-05-03T04:30:32.872Z,2.60
2023-05-03T04:33:01.738Z,2.30
2023-05-03T04:35:31.726Z,2.10
2023-05-03T04:38:03.044Z,2.13
2023-05-03T04:40:31.882Z,2.10
2023-05-03T04:43:08.905Z,2.40
2023-05-03T04:45:39.514Z,2.50
2023-05-03T04:48:09.880Z,2.30
2023-05-03T04:50:37.711Z,2.10
2023-05-03T04:53:08.086Z,2.07
2023-05-03T04:55:39.544Z,1.77
2023-05-03T04:58:07.176Z,1.87
2023-05-03T05:00:37.304Z,2.17
2023-05-03T05:03:11.793Z,1.87
2023-05-03T05:05:39.435Z,2.07
2023-05-03T05:08:09.297Z,2.00
2023-05-03T05:10:42.022Z,1.83
2023-05-03T05:13:11.160Z,2.00
2023-05-03T05:15:40.078Z,1.97
2023-05-03T05:18:07.497Z,1.70
2023-05-03T05:20:35.251Z,1.70
2023-05-03T05:23:03.602Z,1.93
2023-05-03T05:25:31.454Z,1.70
2023-05-03T05:28:00.437Z,1.80
2023-05-03T05:30:29.000Z,2.10
2023-05-03T05:32:57.813Z,1.50
2023-05-03T05:35:25.483Z,1.80
2023-05-03T05:37:52.817Z,1.60
2023-05-03T05:40:20.316Z,1.53
2023-05-03T05:42:52.922Z,1.93
2023-05-03T05:45:21.966Z,1.50
2023-05-03T05:47:51.410Z,1.60
2023-05-03T05:50:20.415Z,1.80
2023-05-03T05:52:54.058Z,1.57
2023-05-03T05:55:23.016Z,1.60
2023-05-03T05:57:51.517Z,1.80
2023-05-03T06:00:22.685Z,1.60
2023-05-03T06:02:50.946Z,1.90
2023-05-03T06:05:22.451Z,1.67
2023-05-03T06:07:49.812Z,1.50
2023-05-03T06:10:18.280Z,1.97
2023-05-03T06:12:49.277Z,1.77
2023-05-03T06:15:21.122Z,2.20
2023-05-03T06:17:48.916Z,1.90
2023-05-03T06:20:16.935Z,1.70
2023-05-03T06:22:45.829Z,2.30
2023-05-03T06:25:17.009Z,1.67
2023-05-03T06:27:47.561Z,1.67
2023-05-03T06:30:15.225Z,1.67
2023-05-03T06:32:43.417Z,1.70
2023-05-03T06:35:12.959Z,1.73
2023-05-03T06:37:43.581Z,1.83
2023-05-03T06:40:12.689Z,1.90
2023-05-03T06:42:40.104Z,2.07
2023-05-03T06:45:19.597Z,1.87
2023-05-03T06:47:47.311Z,1.80
2023-05-03T06:50:14.810Z,1.27
2023-05-03T06:52:42.583Z,1.90
2023-05-03T06:55:10.095Z,1.73
2023-05-03T06:57:39.695Z,1.90
2023-05-03T07:00:07.811Z,2.20
2023-05-03T07:02:35.482Z,2.10
2023-05-03T07:05:03.225Z,1.70
2023-05-03T07:07:30.837Z,2.13
2023-05-03T07:09:58.283Z,2.23
2023-05-03T07:12:27.716Z,1.73
2023-05-03T07:14:56.840Z,2.00
2023-05-03T07:17:24.544Z,1.90
2023-05-03T07:19:52.453Z,1.90
2023-05-03T07:22:21.203Z,1.80
2023-05-03T07:24:48.712Z,1.80
2023-05-03T07:27:16.402Z,1.87
2023-05-03T07:29:43.860Z,2.17
2023-05-03T07:32:13.177Z,2.07
2023-05-03T07:34:40.620Z,2.20
2023-05-03T07:37:07.948Z,1.70
2023-05-03T07:39:36.285Z,2.20
2023-05-03T07:42:03.635Z,2.17
2023-05-03T07:44:31.053Z,1.70
2023-05-03T07:46:58.416Z,2.20
2023-05-03T07:49:27.133Z,2.10
2023-05-03T07:51:54.490Z,2.03
2023-05-03T07:54:21.862Z,1.97
2023-05-03T07:56:49.197Z,2.30
2023-05-03T07:59:16.527Z,2.10
2023-05-03T08:01:43.891Z,1.77
2023-05-03T08:04:12.152Z,1.90
2023-05-03T08:06:42.624Z,1.80
2023-05-03T08:09:11.543Z,2.20
2023-05-03T08:11:39.750Z,2.20
2023-05-03T08:14:07.949Z,2.10
2023-05-03T08:16:35.299Z,1.80
2023-05-03T08:19:02.645Z,1.90
2023-05-03T08:21:30.283Z,2.10
2023-05-03T08:23:59.211Z,2.00
2023-05-03T08:26:28.545Z,2.20
2023-05-03T08:28:56.119Z,2.27
2023-05-03T08:31:23.508Z,2.13
2023-05-03T08:33:51.717Z,2.20
2023-05-03T08:36:19.063Z,1.80
2023-05-03T08:38:46.658Z,2.00
2023-05-03T08:41:19.825Z,2.13
2023-05-03T08:43:49.867Z,2.30
2023-05-03T08:46:17.242Z,2.03
2023-05-03T08:48:45.895Z,2.33
2023-05-03T08:51:14.696Z,2.13
2023-05-03T08:53:42.055Z,2.30
2023-05-03T08:56:10.637Z,2.30
2023-05-03T08:58:39.662Z,2.40
2023-05-03T09:01:08.219Z,2.03
2023-05-03T09:03:36.208Z,2.03
2023-05-03T09:06:04.145Z,2.07
2023-05-03T09:08:32.434Z,2.23
2023-05-03T09:10:59.776Z,2.27
2023-05-03T09:13:31.289Z,2.17
2023-05-03T09:16:00.082Z,2.60
2023-05-03T09:18:27.840Z,2.37
2023-05-03T09:20:55.983Z,2.30
2023-05-03T09:23:31.152Z,2.07
2023-05-03T09:25:59.163Z,2.50
2023-05-03T09:28:26.513Z,2.33
2023-05-03T09:31:05.434Z,2.20
2023-05-03T09:33:34.327Z,2.40
2023-05-03T09:36:06.470Z,2.30
2023-05-03T09:38:34.766Z,2.40
2023-05-03T09:41:02.602Z,2.10
2023-05-03T09:43:30.013Z,2.17
2023-05-03T09:46:08.570Z,2.13
2023-05-03T09:48:37.794Z,2.40
2023-05-03T09:51:06.596Z,1.60
2023-05-03T09:53:34.611Z,2.40
2023-05-03T09:56:03.350Z,2.23
2023-05-03T09:58:39.056Z,2.40
2023-05-03T10:01:06.461Z,2.07
2023-05-03T10:03:35.982Z,2.43
2023-05-03T10:06:04.447Z,2.07
2023-05-03T10:08:34.671Z,2.03
2023-05-03T10:11:02.952Z,2.03
2023-05-03T10:13:31.194Z,2.23
2023-05-03T10:16:02.324Z,2.37
2023-05-03T10:18:30.698Z,2.10
2023-05-03T10:21:02.948Z,2.10
2023-05-03T10:23:30.291Z,2.37
2023-05-03T10:26:16.155Z,1.97
2023-05-03T10:28:44.402Z,2.20
2023-05-03T10:31:30.812Z,2.17
2023-05-03T10:33:59.562Z,2.73
2023-05-03T10:36:38.299Z,2.27
2023-05-03T10:39:14.649Z,2.10
2023-05-03T10:41:42.139Z,2.23
2023-05-03T10:44:24.387Z,2.23
2023-05-03T10:46:52.090Z,2.30
2023-05-03T10:49:21.532Z,1.73
2023-05-03T10:51:49.111Z,2.13
2023-05-03T10:54:17.128Z,2.00
2023-05-03T10:56:51.267Z,2.37
2023-05-03T10:59:18.657Z,1.93
2023-05-03T11:01:46.855Z,2.00
2023-05-03T11:04:18.380Z,2.00
2023-05-03T11:06:51.695Z,2.17
2023-05-03T11:09:19.990Z,1.97
2023-05-03T11:11:47.570Z,2.10
2023-05-03T11:14:14.944Z,2.60
2023-05-03T11:16:48.044Z,2.20
2023-05-03T11:19:16.058Z,2.20
2023-05-03T11:21:43.639Z,2.00
2023-05-03T11:24:12.760Z,2.47
2023-05-03T11:26:40.280Z,2.87
2023-05-03T11:29:10.432Z,2.60
2023-05-03T11:31:37.882Z,1.80
2023-05-03T11:34:06.630Z,2.20
2023-05-03T11:36:34.244Z,2.27
2023-05-03T11:39:01.667Z,2.13
2023-05-03T11:41:30.508Z,2.33
2023-05-03T11:44:07.502Z,2.23
2023-05-03T11:46:42.400Z,2.00
2023-05-03T11:49:10.771Z,2.30
2023-05-03T11:51:38.219Z,2.03
2023-05-03T11:54:20.954Z,2.30
2023-05-03T11:56:56.462Z,2.13
2023-05-03T11:59:34.540Z,2.07
2023-05-03T12:02:04.231Z,2.07
2023-05-03T12:04:32.227Z,1.93
2023-05-03T12:07:00.732Z,2.20
2023-05-03T12:09:29.576Z,2.47
2023-05-03T12:11:59.541Z,2.37
2023-05-03T12:14:29.751Z,2.40
2023-05-03T12:17:00.171Z,2.00
2023-05-03T12:19:31.350Z,2.20
2023-05-03T12:22:22.640Z,2.00
2023-05-03T12:25:00.351Z,2.07
2023-05-03T12:27:32.627Z,1.90
2023-05-03T12:30:01.532Z,2.07
2023-05-03T12:32:29.454Z,2.60
2023-05-03T12:34:57.178Z,2.50
2023-05-03T12:37:27.565Z,2.10
2023-05-03T12:40:18.340Z,2.23
2023-05-03T12:42:45.597Z,2.03
2023-05-03T12:45:13.829Z,2.07
2023-05-03T12:47:44.353Z,1.80
2023-05-03T12:50:12.876Z,2.17
2023-05-03T12:52:43.751Z,1.80
2023-05-03T12:55:17.844Z,2.10
2023-05-03T12:57:56.237Z,2.63
2023-05-03T13:00:36.122Z,2.13
2023-05-03T13:05:36.828Z,1.87
2023-05-03T13:10:35.016Z,1.97
2023-05-03T13:13:04.038Z,2.07
2023-05-03T13:15:31.804Z,1.80
2023-05-03T13:18:01.541Z,1.80
2023-05-03T13:20:29.235Z,2.10
2023-05-03T13:22:56.698Z,1.80
2023-05-03T13:25:24.064Z,2.37
2023-05-03T13:27:53.151Z,2.23
2023-05-03T13:30:23.384Z,1.93
2023-05-03T13:32:50.958Z,1.90
2023-05-03T13:35:18.706Z,2.03
2023-05-03T13:37:46.209Z,2.43
2023-05-03T13:40:14.747Z,2.20
2023-05-03T13:42:42.230Z,2.03
2023-05-03T13:45:10.232Z,2.03
2023-05-03T13:48:04.673Z,1.83
2023-05-03T13:50:29.485Z,1.93
2023-05-03T13:52:57.034Z,2.10
2023-05-03T13:55:26.295Z,1.93
2023-05-03T13:57:53.634Z,1.80
2023-05-03T14:00:21.941Z,1.73
2023-05-03T14:02:51.317Z,1.70
2023-05-03T14:05:19.657Z,1.73
2023-05-03T14:07:46.994Z,1.77
2023-05-03T14:10:14.600Z,1.73
2023-05-03T14:12:42.062Z,1.70
2023-05-03T14:15:09.884Z,1.80
2023-05-03T14:17:37.236Z,1.70
2023-05-03T14:20:08.290Z,1.80
2023-05-03T14:22:36.009Z,1.60
2023-05-03T14:25:03.773Z,1.80
2023-05-03T14:27:31.270Z,1.53
2023-05-03T14:29:58.764Z,2.13
2023-05-03T14:32:27.018Z,1.60
2023-05-03T14:34:54.527Z,1.77
2023-05-03T14:37:23.186Z,1.70
2023-05-03T14:39:50.544Z,1.73
2023-05-03T14:42:17.897Z,2.10
2023-05-03T14:44:45.242Z,1.50
2023-05-03T14:47:12.735Z,1.80
2023-05-03T14:49:41.393Z,1.60
2023-05-03T14:52:08.842Z,1.63
2023-05-03T14:54:38.058Z,1.60
2023-05-03T14:57:05.409Z,1.40
2023-05-03T14:59:33.089Z,1.70
2023-05-03T15:02:00.767Z,1.90
2023-05-03T15:04:29.088Z,1.70
2023-05-03T15:06:57.297Z,1.87
2023-05-03T15:09:25.789Z,1.50
2023-05-03T15:11:54.465Z,1.70
2023-05-03T15:14:21.869Z,1.60
2023-05-03T15:16:49.388Z,1.57
2023-05-03T15:19:16.800Z,1.80
2023-05-03T15:21:47.879Z,1.30
2023-05-03T15:24:15.401Z,1.30
2023-05-03T15:26:42.753Z,1.60
2023-05-03T15:29:11.662Z,1.40
2023-05-03T15:31:39.003Z,1.60
2023-05-03T15:34:06.777Z,1.60
2023-05-03T15:36:36.423Z,1.40
2023-05-03T15:39:04.175Z,1.40
2023-05-03T15:41:31.639Z,1.77
2023-05-03T15:43:59.615Z,1.50
2023-05-03T15:46:28.344Z,1.57
2023-05-03T15:48:55.702Z,1.87
2023-05-03T15:51:23.036Z,1.43
2023-05-03T15:53:50.537Z,1.50
2023-05-03T15:56:17.872Z,1.80
2023-05-03T15:58:45.406Z,1.60
2023-05-03T16:01:13.481Z,1.60
2023-05-03T16:03:42.262Z,1.50
2023-05-03T16:06:09.625Z,1.50
2023-05-03T16:08:37.046Z,1.43
2023-05-03T16:11:04.446Z,2.13
2023-05-03T16:13:31.971Z,1.60
2023-05-03T16:15:59.337Z,1.50
2023-05-03T16:18:27.761Z,2.10
2023-05-03T16:20:56.447Z,3.17
2023-05-03T16:23:23.990Z,2.70
2023-05-03T16:25:51.523Z,1.73
2023-05-03T16:28:18.917Z,1.60
2023-05-03T16:30:46.509Z,2.27
2023-05-03T16:33:14.002Z,1.50
2023-05-03T16:35:41.445Z,1.50
2023-05-03T16:38:10.163Z,1.47
2023-05-03T16:40:40.232Z,1.90
2023-05-03T16:43:08.483Z,1.50
2023-05-03T16:45:35.942Z,1.77
2023-05-03T16:48:05.985Z,1.80
2023-05-03T16:50:34.815Z,1.70
2023-05-03T16:53:02.158Z,1.70
2023-05-03T16:55:31.004Z,1.67
2023-05-03T16:57:58.392Z,1.43
2023-05-03T17:00:25.834Z,1.53
2023-05-03T17:02:53.297Z,1.80
2023-05-03T17:05:20.810Z,1.50
2023-05-03T17:07:48.173Z,1.70
2023-05-03T17:10:15.688Z,1.77
2023-05-03T17:12:47.470Z,1.73
2023-05-03T17:15:14.887Z,1.70
2023-05-03T17:17:42.354Z,1.90
2023-05-03T17:20:10.879Z,1.60
2023-05-03T17:22:38.312Z,1.80
2023-05-03T17:25:06.167Z,1.63
2023-05-03T17:27:33.582Z,1.43
2023-05-03T17:30:02.513Z,1.70
2023-05-03T17:32:30.490Z,1.40
2023-05-03T17:34:58.089Z,1.57
2023-05-03T17:37:25.606Z,1.40
2023-05-03T17:39:52.973Z,1.23
2023-05-03T17:42:20.611Z,1.57
2023-05-03T17:44:48.044Z,1.73
2023-05-03T17:47:16.893Z,1.37
2023-05-03T17:49:44.514Z,1.47
2023-05-03T17:52:11.917Z,1.47
2023-05-03T17:54:40.606Z,2.00
2023-05-03T17:57:08.508Z,1.60
2023-05-03T17:59:35.826Z,1.50
2023-05-03T18:02:03.389Z,1.37
2023-05-03T18:04:32.418Z,1.47
2023-05-03T18:06:59.833Z,1.70
2023-05-03T18:09:27.335Z,1.43
2023-05-03T18:11:56.283Z,1.43
2023-05-03T18:14:23.638Z,1.30
2023-05-03T18:16:53.027Z,1.33
2023-05-03T18:19:21.202Z,1.40
2023-05-03T18:21:49.982Z,1.30
2023-05-03T18:24:17.403Z,1.57
2023-05-03T18:26:44.809Z,1.23
2023-05-03T18:29:12.167Z,1.40
2023-05-03T18:31:39.580Z,1.20
2023-05-03T18:34:07.145Z,1.63
2023-05-03T18:36:34.647Z,1.60
2023-05-03T18:39:04.761Z,1.90
2023-05-03T18:41:32.525Z,1.63
2023-05-03T18:44:00.413Z,1.53
2023-05-03T18:46:28.056Z,1.67
2023-05-03T18:48:55.467Z,1.70
2023-05-03T18:51:23.116Z,1.50
2023-05-03T18:53:50.838Z,1.70
2023-05-03T18:56:19.675Z,1.80
2023-05-03T18:58:47.772Z,1.47
2023-05-03T19:01:15.206Z,1.47
2023-05-03T19:03:42.753Z,1.80
2023-05-03T19:06:11.301Z,1.80
2023-05-03T19:08:38.794Z,1.60
2023-05-03T19:11:09.681Z,1.43
2023-05-03T19:13:39.075Z,1.30
2023-05-03T19:16:06.736Z,1.90
2023-05-03T19:18:37.049Z,1.70
2023-05-03T19:21:04.719Z,1.70
2023-05-03T19:23:32.383Z,1.50
2023-05-03T19:25:59.722Z,1.50
2023-05-03T19:28:27.348Z,1.67
2023-05-03T19:30:58.398Z,4.23
2023-05-03T19:33:26.140Z,3.33
2023-05-03T19:35:54.444Z,3.33
2023-05-03T19:38:23.760Z,2.57
2023-05-03T19:41:05.818Z,2.50
2023-05-03T19:43:33.154Z,2.23
2023-05-03T19:46:02.819Z,2.20
2023-05-03T19:48:30.502Z,1.80
2023-05-03T19:50:58.700Z,2.03
2023-05-03T19:53:26.199Z,1.83
2023-05-03T19:55:58.124Z,2.07
2023-05-03T19:58:25.798Z,2.13
2023-05-03T20:00:53.160Z,2.37
2023-05-03T20:03:23.183Z,2.00
2023-05-03T20:05:50.697Z,2.00
2023-05-03T20:08:18.154Z,2.10
2023-05-03T20:10:46.664Z,2.00
2023-05-03T20:13:14.377Z,2.03
2023-05-03T20:15:41.932Z,2.03
2023-05-03T20:18:09.820Z,2.03
2023-05-03T20:20:39.031Z,2.10
2023-05-03T20:23:08.633Z,2.37
2023-05-03T20:25:36.100Z,2.43
2023-05-03T20:28:04.745Z,2.70
2023-05-03T20:30:32.451Z,3.10
2023-05-03T20:32:59.934Z,2.73
2023-05-03T20:35:27.469Z,3.10
2023-05-03T20:37:56.849Z,3.30
2023-05-03T20:40:24.504Z,2.73
2023-05-03T20:42:51.925Z,3.30
2023-05-03T20:45:21.666Z,2.50
2023-05-03T20:47:49.146Z,2.07
2023-05-03T20:50:16.908Z,1.83
2023-05-03T20:52:44.341Z,2.40
2023-05-03T20:55:13.156Z,2.17
2023-05-03T20:57:40.915Z,1.97
2023-05-03T21:00:08.859Z,2.10
2023-05-03T21:02:36.371Z,2.30
2023-05-03T21:05:05.205Z,2.20
2023-05-03T21:07:32.760Z,1.87
2023-05-03T21:10:00.156Z,1.93
2023-05-03T21:12:29.384Z,2.20
2023-05-03T21:14:56.757Z,2.50
2023-05-03T21:17:24.115Z,2.17
2023-05-03T21:19:51.863Z,2.40
2023-05-03T21:22:19.243Z,2.33
2023-05-03T21:24:46.582Z,2.30
2023-05-03T21:27:14.444Z,2.80
2023-05-03T21:29:43.141Z,2.20
2023-05-03T21:32:10.782Z,2.73
2023-05-03T21:34:38.325Z,2.80
2023-05-03T21:37:05.678Z,2.73
2023-05-03T21:39:33.414Z,2.53
2023-05-03T21:42:04.169Z,2.70
2023-05-03T21:44:31.683Z,2.57
2023-05-03T21:47:00.726Z,2.23
2023-05-03T21:49:28.226Z,2.30
2023-05-03T21:51:55.566Z,2.07
2023-05-03T21:54:22.920Z,2.40
2023-05-03T21:56:50.306Z,2.20
2023-05-03T21:59:17.644Z,2.23
2023-05-03T22:01:45.057Z,2.27
2023-05-03T22:04:13.760Z,2.50
2023-05-03T22:06:41.107Z,2.27
2023-05-03T22:09:09.600Z,1.70
2023-05-03T22:11:36.986Z,2.37
2023-05-03T22:14:08.407Z,2.10
2023-05-03T22:16:36.035Z,2.37
2023-05-03T22:19:03.514Z,2.30
2023-05-03T22:21:32.513Z,2.37
2023-05-03T22:24:00.193Z,2.63
2023-05-03T22:26:27.823Z,2.23
2023-05-03T22:28:55.183Z,2.60
2023-05-03T22:31:22.584Z,2.40
2023-05-03T22:33:49.987Z,2.20
2023-05-03T22:36:17.368Z,2.33
2023-05-03T22:38:46.142Z,2.03
2023-05-03T22:41:13.491Z,2.30
2023-05-03T22:43:40.821Z,2.13
2023-05-03T22:46:08.248Z,2.33
2023-05-03T22:48:35.659Z,2.30
2023-05-03T22:51:02.985Z,2.13
2023-05-03T22:53:30.332Z,2.27
2023-05-03T22:56:00.847Z,2.20
2023-05-03T22:58:28.610Z,2.23
2023-05-03T23:00:57.405Z,2.37
2023-05-03T23:03:25.045Z,2.00
2023-05-03T23:05:53.157Z,1.90
2023-05-03T23:08:21.210Z,2.40
2023-05-03T23:10:48.634Z,2.10
2023-05-03T23:13:17.814Z,2.20
2023-05-03T23:15:45.401Z,2.10
2023-05-03T23:18:12.761Z,1.97
2023-05-03T23:20:40.274Z,2.20
2023-05-03T23:23:07.612Z,1.97
2023-05-03T23:25:34.992Z,1.80
2023-05-03T23:28:02.381Z,1.93
2023-05-03T23:30:31.562Z,2.10
2023-05-03T23:32:59.152Z,2.03
2023-05-03T23:35:27.044Z,2.00
2023-05-03T23:37:54.452Z,1.93
2023-05-03T23:40:22.003Z,1.90
2023-05-03T23:42:49.771Z,2.07
2023-05-03T23:45:17.138Z,1.87
2023-05-03T23:47:45.951Z,1.80
2023-05-03T23:50:13.899Z,2.10
2023-05-03T23:52:42.363Z,1.80
2023-05-03T23:55:10.357Z,1.70
2023-05-03T23:57:37.746Z,1.90
